createdAt,value
2023-04-17T00:01:47.691Z,17.21
2023-04-17T00:04:16.107Z,17.20
2023-04-17T00:06:44.382Z,17.12
2023-04-17T00:09:13.908Z,17.11
2023-04-17T00:11:42.314Z,17.11
2023-04-17T00:14:10.542Z,17.09
2023-04-17T00:16:38.987Z,16.96
2023-04-17T00:19:07.230Z,16.94
2023-04-17T00:21:35.469Z,16.87
2023-04-17T00:24:03.743Z,16.81
2023-04-17T00:26:33.297Z,16.75
2023-04-17T00:29:02.869Z,16.65
2023-04-17T00:31:31.484Z,16.68
2023-04-17T00:34:02.076Z,16.72
2023-04-17T00:36:32.694Z,16.74
2023-04-17T00:39:01.433Z,16.71
2023-04-17T00:41:29.690Z,16.65
2023-04-17T00:43:57.960Z,16.57
2023-04-17T00:46:26.167Z,16.50
2023-04-17T00:48:54.411Z,16.42
2023-04-17T00:51:22.746Z,16.34
2023-04-17T00:53:51.076Z,16.33
2023-04-17T00:56:19.258Z,16.30
2023-04-17T00:58:48.129Z,16.25
2023-04-17T01:01:16.524Z,16.32
2023-04-17T01:03:45.828Z,16.33
2023-04-17T01:06:14.249Z,16.26
2023-04-17T01:08:44.006Z,16.20
2023-04-17T01:11:12.871Z,16.06
2023-04-17T01:13:51.558Z,15.94
2023-04-17T01:16:20.718Z,15.83
2023-04-17T01:18:49.286Z,15.80
2023-04-17T01:21:17.588Z,15.76
2023-04-17T01:23:52.488Z,15.72
2023-04-17T01:26:23.486Z,15.59
2023-04-17T01:28:57.486Z,15.51
2023-04-17T01:31:28.014Z,15.44
2023-04-17T01:33:56.769Z,15.40
2023-04-17T01:36:24.960Z,15.33
2023-04-17T01:38:53.144Z,15.27
2023-04-17T01:41:21.360Z,15.26
2023-04-17T01:43:49.653Z,15.22
2023-04-17T01:46:17.981Z,15.15
2023-04-17T01:48:46.262Z,15.02
2023-04-17T01:51:14.488Z,14.91
2023-04-17T01:53:42.880Z,14.89
2023-04-17T01:56:11.336Z,14.87
2023-04-17T01:58:39.592Z,14.83
2023-04-17T02:01:07.830Z,14.77
2023-04-17T02:03:36.270Z,14.71
2023-04-17T02:06:04.759Z,14.66
2023-04-17T02:08:33.067Z,14.63
2023-04-17T02:11:01.260Z,14.57
2023-04-17T02:13:29.652Z,14.47
2023-04-17T02:15:57.972Z,14.44
2023-04-17T02:18:27.329Z,14.40
2023-04-17T02:20:55.476Z,14.36
2023-04-17T02:23:23.704Z,14.32
2023-04-17T02:25:52.477Z,14.26
2023-04-17T02:28:20.709Z,14.18
2023-04-17T02:30:48.926Z,14.12
2023-04-17T02:33:17.187Z,14.05
2023-04-17T02:35:45.483Z,13.99
2023-04-17T02:38:13.804Z,13.98
2023-04-17T02:40:42.102Z,13.95
2023-04-17T02:43:10.409Z,13.90
2023-04-17T02:45:38.630Z,13.83
2023-04-17T02:48:07.249Z,13.80
2023-04-17T02:50:35.522Z,13.77
2023-04-17T02:53:03.771Z,13.71
2023-04-17T02:55:31.987Z,13.69
2023-04-17T02:58:00.140Z,13.68
2023-04-17T03:00:29.923Z,13.69
2023-04-17T03:02:58.340Z,13.68
2023-04-17T03:05:26.799Z,13.67
2023-04-17T03:07:54.957Z,13.67
2023-04-17T03:10:23.119Z,13.67
2023-04-17T03:12:51.554Z,13.67
2023-04-17T03:15:19.782Z,13.65
2023-04-17T03:17:48.362Z,13.62
2023-04-17T03:20:16.875Z,13.58
2023-04-17T03:22:45.085Z,13.52
2023-04-17T03:25:13.577Z,13.47
2023-04-17T03:27:41.751Z,13.43
2023-04-17T03:30:10.528Z,13.41
2023-04-17T03:32:38.892Z,13.41
2023-04-17T03:35:07.333Z,13.39
2023-04-17T03:37:35.562Z,13.39
2023-04-17T03:40:06.261Z,13.36
2023-04-17T03:42:34.475Z,13.32
2023-04-17T03:45:04.175Z,13.27
2023-04-17T03:47:32.413Z,13.25
2023-04-17T03:50:00.699Z,13.20
2023-04-17T03:52:28.880Z,13.17
2023-04-17T03:54:57.718Z,13.15
2023-04-17T03:57:25.900Z,13.11
2023-04-17T03:59:54.097Z,13.10
2023-04-17T04:02:22.614Z,13.05
2023-04-17T04:04:51.253Z,13.04
2023-04-17T04:07:19.520Z,13.03
2023-04-17T04:09:48.079Z,12.99
2023-04-17T04:12:16.382Z,12.96
2023-04-17T04:14:44.625Z,12.92
2023-04-17T04:17:12.838Z,12.89
2023-04-17T04:19:41.307Z,12.87
2023-04-17T04:22:09.613Z,12.84
2023-04-17T04:24:37.920Z,12.80
2023-04-17T04:27:06.295Z,12.77
2023-04-17T04:29:34.845Z,12.75
2023-04-17T04:32:03.170Z,12.70
2023-04-17T04:34:31.507Z,12.64
2023-04-17T04:36:59.944Z,12.63
2023-04-17T04:39:30.715Z,12.61
2023-04-17T04:42:06.589Z,12.59
2023-04-17T04:44:34.777Z,12.59
2023-04-17T04:47:03.121Z,12.60
2023-04-17T04:49:31.477Z,12.64
2023-04-17T04:51:59.725Z,12.66
2023-04-17T04:54:28.045Z,12.68
2023-04-17T04:56:56.509Z,12.70
2023-04-17T04:59:24.951Z,12.71
2023-04-17T05:01:53.219Z,12.74
2023-04-17T05:04:21.541Z,12.80
2023-04-17T05:06:49.780Z,12.86
2023-04-17T05:09:18.170Z,12.90
2023-04-17T05:11:47.121Z,12.91
2023-04-17T05:14:15.346Z,12.96
2023-04-17T05:16:44.073Z,13.03
2023-04-17T05:19:12.870Z,13.06
2023-04-17T05:21:41.166Z,13.07
2023-04-17T05:24:09.439Z,13.14
2023-04-17T05:26:37.628Z,13.13
2023-04-17T05:29:05.932Z,13.11
2023-04-17T05:31:34.147Z,13.06
2023-04-17T05:34:02.332Z,13.03
2023-04-17T05:36:32.416Z,13.02
2023-04-17T05:39:00.628Z,13.02
2023-04-17T05:41:31.621Z,13.00
2023-04-17T05:43:59.854Z,13.01
2023-04-17T05:46:28.148Z,13.02
2023-04-17T05:48:56.368Z,13.05
2023-04-17T05:51:24.581Z,13.04
2023-04-17T05:53:52.774Z,13.06
2023-04-17T05:56:21.160Z,13.07
2023-04-17T05:58:49.348Z,13.07
2023-04-17T06:01:23.218Z,13.04
2023-04-17T06:03:51.926Z,13.04
2023-04-17T06:06:20.226Z,13.06
2023-04-17T06:08:48.427Z,13.07
2023-04-17T06:11:16.765Z,13.05
2023-04-17T06:13:44.935Z,13.06
2023-04-17T06:16:13.115Z,13.06
2023-04-17T06:18:42.316Z,13.05
2023-04-17T06:21:11.006Z,13.04
2023-04-17T06:23:39.221Z,13.03
2023-04-17T06:26:07.424Z,12.98
2023-04-17T06:28:35.585Z,12.95
2023-04-17T06:31:03.795Z,12.96
2023-04-17T06:33:32.051Z,13.00
2023-04-17T06:36:00.193Z,13.01
2023-04-17T06:38:28.331Z,13.05
2023-04-17T06:40:56.501Z,13.06
2023-04-17T06:43:24.852Z,13.11
2023-04-17T06:45:53.162Z,13.13
2023-04-17T06:48:21.470Z,13.17
2023-04-17T06:50:50.204Z,13.20
2023-04-17T06:53:18.372Z,13.19
2023-04-17T06:55:46.553Z,13.18
2023-04-17T06:58:15.042Z,13.18
2023-04-17T07:00:43.216Z,13.17
2023-04-17T07:03:12.038Z,13.15
2023-04-17T07:05:40.307Z,13.09
2023-04-17T07:08:08.487Z,13.07
2023-04-17T07:10:36.760Z,13.10
2023-04-17T07:13:04.921Z,13.12
2023-04-17T07:15:33.207Z,13.10
2023-04-17T07:18:01.597Z,13.06
2023-04-17T07:20:29.877Z,13.01
2023-04-17T07:22:58.173Z,12.99
2023-04-17T07:25:26.485Z,12.95
2023-04-17T07:27:57.713Z,12.93
2023-04-17T07:30:26.144Z,12.92
2023-04-17T07:32:54.462Z,12.88
2023-04-17T07:35:23.308Z,12.83
2023-04-17T07:37:51.632Z,12.80
2023-04-17T07:40:20.252Z,12.80
2023-04-17T07:42:48.482Z,12.76
2023-04-17T07:45:16.913Z,12.67
2023-04-17T07:47:45.148Z,12.57
2023-04-17T07:50:13.770Z,12.49
2023-04-17T07:52:41.989Z,12.44
2023-04-17T07:55:10.566Z,12.42
2023-04-17T07:57:43.345Z,12.40
2023-04-17T08:00:14.838Z,12.37
2023-04-17T08:02:46.812Z,12.32
2023-04-17T08:05:15.244Z,12.26
2023-04-17T08:07:44.195Z,12.23
2023-04-17T08:10:12.480Z,12.23
2023-04-17T08:12:41.187Z,12.19
2023-04-17T08:15:10.267Z,12.18
2023-04-17T08:17:38.579Z,12.11
2023-04-17T08:20:09.198Z,12.07
2023-04-17T08:22:44.350Z,12.04
2023-04-17T08:25:13.671Z,11.98
2023-04-17T08:27:43.322Z,11.94
2023-04-17T08:30:16.230Z,11.90
2023-04-17T08:32:47.531Z,11.87
2023-04-17T08:35:17.978Z,11.88
2023-04-17T08:37:49.181Z,11.87
2023-04-17T08:40:19.439Z,11.87
2023-04-17T08:42:48.583Z,11.85
2023-04-17T08:45:17.015Z,11.81
2023-04-17T08:47:45.304Z,11.76
2023-04-17T08:50:21.117Z,11.71
2023-04-17T08:52:51.243Z,11.68
2023-04-17T08:55:23.124Z,11.66
2023-04-17T08:58:05.022Z,11.62
2023-04-17T09:00:35.423Z,11.57
2023-04-17T09:03:05.885Z,11.51
2023-04-17T09:05:34.671Z,11.48
2023-04-17T09:08:18.585Z,11.47
2023-04-17T09:10:48.450Z,11.47
2023-04-17T09:13:18.893Z,11.43
2023-04-17T09:15:49.057Z,11.38
2023-04-17T09:18:33.919Z,11.35
2023-04-17T09:21:03.193Z,11.32
2023-04-17T09:23:46.320Z,11.25
2023-04-17T09:26:16.564Z,11.19
2023-04-17T09:29:01.224Z,11.16
2023-04-17T09:31:35.391Z,11.12
2023-04-17T09:34:05.121Z,11.11
2023-04-17T09:36:35.531Z,11.11
2023-04-17T09:39:17.757Z,11.09
2023-04-17T09:41:46.360Z,11.08
2023-04-17T09:44:29.443Z,11.09
2023-04-17T09:46:58.620Z,11.13
2023-04-17T09:49:26.829Z,11.12
2023-04-17T09:51:55.294Z,11.12
2023-04-17T09:54:24.441Z,11.14
2023-04-17T09:56:56.513Z,11.16
2023-04-17T09:59:25.805Z,11.18
2023-04-17T10:01:55.070Z,11.18
2023-04-17T10:04:23.907Z,11.22
2023-04-17T10:06:52.198Z,11.25
2023-04-17T10:09:20.546Z,11.29
2023-04-17T10:11:49.355Z,11.34
2023-04-17T10:14:28.847Z,11.38
2023-04-17T10:16:57.330Z,11.43
2023-04-17T10:19:33.815Z,11.47
2023-04-17T10:22:18.829Z,11.50
2023-04-17T10:24:52.732Z,11.53
2023-04-17T10:27:29.388Z,11.57
2023-04-17T10:29:59.211Z,11.58
2023-04-17T10:32:32.155Z,11.60
2023-04-17T10:35:02.657Z,11.59
2023-04-17T10:37:49.308Z,11.61
2023-04-17T10:40:30.498Z,11.61
2023-04-17T10:43:18.677Z,11.60
2023-04-17T10:46:06.849Z,11.57
2023-04-17T10:48:39.188Z,11.52
2023-04-17T10:51:43.302Z,11.49
2023-04-17T10:54:11.843Z,11.46
2023-04-17T10:56:49.110Z,11.46
2023-04-17T10:59:19.833Z,11.45
2023-04-17T11:01:51.764Z,11.46
2023-04-17T11:04:31.300Z,11.44
2023-04-17T11:07:00.227Z,11.43
2023-04-17T11:09:30.298Z,11.37
2023-04-17T11:12:04.662Z,11.33
2023-04-17T11:14:33.162Z,11.25
2023-04-17T11:17:02.675Z,11.21
2023-04-17T11:19:33.363Z,11.21
2023-04-17T11:22:03.445Z,11.23
2023-04-17T11:24:32.984Z,11.23
2023-04-17T11:27:04.185Z,11.24
2023-04-17T11:29:32.392Z,11.27
2023-04-17T11:32:02.068Z,11.33
2023-04-17T11:34:30.430Z,11.35
2023-04-17T11:37:01.088Z,11.32
2023-04-17T11:39:34.376Z,11.29
2023-04-17T11:42:05.927Z,11.22
2023-04-17T11:44:34.159Z,11.19
2023-04-17T11:47:04.271Z,11.14
2023-04-17T11:49:40.354Z,11.09
2023-04-17T11:52:08.637Z,11.03
2023-04-17T11:54:38.563Z,11.00
2023-04-17T11:57:16.395Z,10.92
2023-04-17T11:59:46.275Z,10.86
2023-04-17T12:02:15.903Z,10.76
2023-04-17T12:04:44.336Z,10.69
2023-04-17T12:07:25.318Z,10.63
2023-04-17T12:09:58.429Z,10.63
2023-04-17T12:12:26.585Z,10.65
2023-04-17T12:14:54.920Z,10.66
2023-04-17T12:17:23.182Z,10.66
2023-04-17T12:19:51.798Z,10.67
2023-04-17T12:22:20.079Z,10.68
2023-04-17T12:24:48.410Z,10.70
2023-04-17T12:27:16.936Z,10.72
2023-04-17T12:29:45.316Z,10.73
2023-04-17T12:32:14.081Z,10.78
2023-04-17T12:34:42.367Z,10.81
2023-04-17T12:37:10.670Z,10.86
2023-04-17T12:39:38.777Z,10.92
2023-04-17T12:42:06.929Z,10.97
2023-04-17T12:44:35.140Z,11.02
2023-04-17T12:47:03.400Z,11.08
2023-04-17T12:49:31.603Z,11.10
2023-04-17T12:52:02.475Z,11.10
2023-04-17T12:54:31.583Z,11.11
2023-04-17T12:57:00.074Z,11.11
2023-04-17T12:59:28.239Z,11.08
2023-04-17T13:01:56.599Z,11.09
2023-04-17T13:04:24.907Z,11.12
2023-04-17T13:06:53.227Z,11.08
2023-04-17T13:09:21.394Z,11.00
2023-04-17T13:11:49.546Z,10.92
2023-04-17T13:14:17.757Z,10.90
2023-04-17T13:16:47.290Z,10.88
2023-04-17T13:19:15.677Z,10.86
2023-04-17T13:21:43.950Z,10.83
2023-04-17T13:24:15.376Z,10.79
2023-04-17T13:26:43.828Z,10.74
2023-04-17T13:29:12.397Z,10.64
2023-04-17T13:31:40.862Z,10.60
2023-04-17T13:34:10.809Z,10.57
2023-04-17T13:36:39.408Z,10.55
2023-04-17T13:39:07.676Z,10.56
2023-04-17T13:41:36.087Z,10.54
2023-04-17T13:44:04.476Z,10.48
2023-04-17T13:46:34.297Z,10.51
2023-04-17T13:49:02.538Z,10.52
2023-04-17T13:51:30.828Z,10.57
2023-04-17T13:54:01.958Z,10.60
2023-04-17T13:56:30.237Z,10.59
2023-04-17T13:58:59.255Z,10.61
2023-04-17T14:01:27.722Z,10.63
2023-04-17T14:03:56.027Z,10.64
2023-04-17T14:06:24.313Z,10.67
2023-04-17T14:08:52.509Z,10.73
2023-04-17T14:11:20.729Z,10.77
2023-04-17T14:13:48.992Z,10.87
2023-04-17T14:16:17.301Z,10.87
2023-04-17T14:18:48.814Z,10.91
2023-04-17T14:21:17.958Z,10.99
2023-04-17T14:23:47.685Z,11.07
2023-04-17T14:26:16.152Z,11.13
2023-04-17T14:28:44.291Z,11.21
2023-04-17T14:31:12.497Z,11.28
2023-04-17T14:33:40.808Z,11.36
2023-04-17T14:36:09.370Z,11.41
2023-04-17T14:38:37.720Z,11.47
2023-04-17T14:41:06.201Z,11.50
2023-04-17T14:43:34.438Z,11.51
2023-04-17T14:46:02.624Z,11.57
2023-04-17T14:48:32.701Z,11.62
2023-04-17T14:51:03.006Z,11.70
2023-04-17T14:53:31.248Z,11.70
2023-04-17T14:56:00.875Z,11.74
2023-04-17T14:58:29.055Z,11.75
2023-04-17T15:00:57.312Z,11.82
2023-04-17T15:03:25.904Z,11.85
2023-04-17T15:05:54.799Z,11.88
2023-04-17T15:08:22.972Z,11.91
2023-04-17T15:10:51.717Z,11.92
2023-04-17T15:13:20.008Z,11.91
2023-04-17T15:15:48.533Z,11.89
2023-04-17T15:18:16.823Z,11.90
2023-04-17T15:20:45.039Z,11.93
2023-04-17T15:23:13.297Z,11.94
2023-04-17T15:25:41.543Z,11.99
2023-04-17T15:28:10.125Z,12.04
2023-04-17T15:30:38.409Z,12.07
2023-04-17T15:33:09.237Z,12.14
2023-04-17T15:35:39.137Z,12.20
2023-04-17T15:38:08.601Z,12.28
2023-04-17T15:40:36.817Z,12.39
2023-04-17T15:43:04.994Z,12.51
2023-04-17T15:45:33.260Z,12.63
2023-04-17T15:48:02.436Z,12.75
2023-04-17T15:50:30.797Z,12.87
2023-04-17T15:52:58.976Z,12.94
2023-04-17T15:55:27.237Z,12.97
2023-04-17T15:57:55.508Z,13.01
2023-04-17T16:00:23.795Z,12.98
2023-04-17T16:02:52.873Z,12.87
2023-04-17T16:05:21.793Z,13.01
2023-04-17T16:07:50.030Z,13.15
2023-04-17T16:10:19.712Z,13.19
2023-04-17T16:12:48.322Z,13.18
2023-04-17T16:15:18.580Z,13.14
2023-04-17T16:17:49.221Z,13.05
2023-04-17T16:20:18.050Z,13.08
2023-04-17T16:22:46.256Z,13.17
2023-04-17T16:25:14.484Z,13.26
2023-04-17T16:27:42.750Z,13.44
2023-04-17T16:30:11.912Z,13.52
2023-04-17T16:32:40.216Z,13.50
2023-04-17T16:35:08.802Z,13.50
2023-04-17T16:37:37.158Z,13.48
2023-04-17T16:40:05.845Z,13.53
2023-04-17T16:42:34.555Z,13.62
2023-04-17T16:45:02.810Z,13.72
2023-04-17T16:47:31.788Z,13.79
2023-04-17T16:50:00.005Z,13.85
2023-04-17T16:52:28.220Z,13.90
2023-04-17T16:54:56.489Z,13.95
2023-04-17T16:57:24.723Z,13.90
2023-04-17T16:59:52.914Z,13.89
2023-04-17T17:02:21.619Z,13.87
2023-04-17T17:04:50.373Z,13.95
2023-04-17T17:07:18.518Z,13.99
2023-04-17T17:09:46.867Z,13.96
2023-04-17T17:12:15.125Z,14.02
2023-04-17T17:14:43.297Z,14.11
2023-04-17T17:17:11.531Z,14.13
2023-04-17T17:19:39.711Z,14.15
2023-04-17T17:22:07.934Z,14.25
2023-04-17T17:24:37.024Z,14.24
2023-04-17T17:27:05.299Z,14.17
2023-04-17T17:29:33.691Z,14.21
2023-04-17T17:32:02.030Z,14.27
2023-04-17T17:34:30.578Z,14.36
2023-04-17T17:36:59.592Z,14.49
2023-04-17T17:39:27.791Z,14.56
2023-04-17T17:41:57.260Z,14.53
2023-04-17T17:44:25.609Z,14.53
2023-04-17T17:46:53.805Z,14.44
2023-04-17T17:49:22.046Z,14.34
2023-04-17T17:51:50.239Z,14.30
2023-04-17T17:54:18.406Z,14.27
2023-04-17T17:56:47.088Z,14.30
2023-04-17T17:59:15.233Z,14.36
2023-04-17T18:01:43.471Z,14.40
2023-04-17T18:04:12.248Z,14.24
2023-04-17T18:06:41.832Z,14.18
2023-04-17T18:09:10.122Z,14.21
2023-04-17T18:11:38.902Z,14.24
2023-04-17T18:14:07.477Z,14.29
2023-04-17T18:16:37.057Z,14.44
2023-04-17T18:19:05.866Z,14.54
2023-04-17T18:21:34.624Z,14.59
2023-04-17T18:24:02.919Z,14.58
2023-04-17T18:26:31.210Z,14.55
2023-04-17T18:28:59.407Z,14.49
2023-04-17T18:31:29.028Z,14.62
2023-04-17T18:33:57.409Z,14.70
2023-04-17T18:36:25.584Z,14.89
2023-04-17T18:38:53.873Z,14.95
2023-04-17T18:41:22.332Z,14.80
2023-04-17T18:43:50.554Z,14.75
2023-04-17T18:46:19.478Z,14.73
2023-04-17T18:48:47.986Z,14.75
2023-04-17T18:51:16.325Z,14.87
2023-04-17T18:53:44.609Z,14.88
2023-04-17T18:56:15.687Z,14.95
2023-04-17T18:58:44.021Z,14.97
2023-04-17T19:01:12.293Z,15.01
2023-04-17T19:03:41.144Z,15.03
2023-04-17T19:06:09.545Z,15.09
2023-04-17T19:08:38.142Z,15.11
2023-04-17T19:11:06.874Z,15.10
2023-04-17T19:13:35.051Z,15.10
2023-04-17T19:16:03.325Z,15.14
2023-04-17T19:18:31.599Z,15.21
2023-04-17T19:20:59.748Z,15.20
2023-04-17T19:23:28.013Z,15.11
2023-04-17T19:25:57.169Z,15.13
2023-04-17T19:28:26.317Z,15.24
2023-04-17T19:30:54.600Z,15.27
2023-04-17T19:33:23.820Z,15.26
2023-04-17T19:35:53.150Z,15.35
2023-04-17T19:38:22.233Z,15.50
2023-04-17T19:41:15.346Z,15.53
2023-04-17T19:43:43.908Z,15.59
2023-04-17T19:46:12.227Z,15.84
2023-04-17T19:48:42.983Z,16.00
2023-04-17T19:51:12.286Z,15.99
2023-04-17T19:53:42.636Z,16.09
2023-04-17T19:56:11.599Z,16.10
2023-04-17T19:58:41.079Z,16.02
2023-04-17T20:01:09.423Z,16.09
2023-04-17T20:03:39.982Z,16.20
2023-04-17T20:06:09.136Z,16.31
2023-04-17T20:08:37.511Z,16.35
2023-04-17T20:11:07.079Z,16.40
2023-04-17T20:13:35.375Z,16.33
2023-04-17T20:16:03.773Z,16.29
2023-04-17T20:18:32.499Z,16.33
2023-04-17T20:21:04.247Z,16.30
2023-04-17T20:23:32.509Z,16.21
2023-04-17T20:26:00.698Z,16.19
2023-04-17T20:28:29.937Z,16.11
2023-04-17T20:30:58.257Z,16.02
2023-04-17T20:33:26.621Z,16.00
2023-04-17T20:35:54.858Z,15.96
2023-04-17T20:38:23.091Z,15.94
2023-04-17T20:40:51.361Z,15.79
2023-04-17T20:43:19.833Z,15.65
2023-04-17T20:45:50.102Z,15.55
2023-04-17T20:48:18.547Z,15.55
2023-04-17T20:50:47.400Z,15.58
2023-04-17T20:53:15.595Z,15.68
2023-04-17T20:55:43.769Z,15.69
2023-04-17T20:58:12.042Z,15.72
2023-04-17T21:00:50.615Z,15.79
2023-04-17T21:03:26.837Z,15.98
2023-04-17T21:05:55.696Z,15.97
2023-04-17T21:08:24.026Z,15.99
2023-04-17T21:10:52.476Z,15.93
2023-04-17T21:13:20.635Z,15.96
2023-04-17T21:15:48.830Z,16.15
2023-04-17T21:18:17.084Z,16.33
2023-04-17T21:20:45.396Z,16.36
2023-04-17T21:23:13.757Z,16.51
2023-04-17T21:25:41.956Z,16.47
2023-04-17T21:28:10.167Z,16.47
2023-04-17T21:30:38.397Z,16.68
2023-04-17T21:33:06.676Z,16.75
2023-04-17T21:35:37.269Z,16.93
2023-04-17T21:38:05.951Z,17.11
2023-04-17T21:40:36.793Z,17.26
2023-04-17T21:43:05.933Z,17.55
2023-04-17T21:45:34.167Z,17.66
2023-04-17T21:48:02.487Z,17.81
2023-04-17T21:50:30.759Z,17.95
2023-04-17T21:52:59.018Z,18.06
2023-04-17T21:55:27.312Z,17.93
2023-04-17T21:57:55.484Z,17.97
2023-04-17T22:00:23.735Z,18.03
2023-04-17T22:02:52.261Z,18.21
2023-04-17T22:05:20.597Z,18.48
2023-04-17T22:07:54.758Z,18.52
2023-04-17T22:10:24.682Z,18.67
2023-04-17T22:12:52.948Z,18.72
2023-04-17T22:15:21.315Z,18.81
2023-04-17T22:17:49.537Z,18.73
2023-04-17T22:20:17.989Z,18.86
2023-04-17T22:22:48.135Z,18.75
2023-04-17T22:25:16.449Z,18.61
2023-04-17T22:27:44.642Z,18.51
2023-04-17T22:30:13.130Z,18.56
2023-04-17T22:32:41.467Z,18.71
2023-04-17T22:35:10.197Z,18.97
2023-04-17T22:37:38.402Z,18.79
2023-04-17T22:40:07.344Z,18.64
2023-04-17T22:42:35.604Z,18.62
2023-04-17T22:45:03.843Z,18.50
2023-04-17T22:47:32.109Z,18.38
2023-04-17T22:50:00.675Z,18.33
2023-04-17T22:52:29.068Z,18.34
2023-04-17T22:54:57.294Z,18.19
2023-04-17T22:57:25.841Z,17.97
2023-04-17T22:59:54.063Z,17.94
2023-04-17T23:02:22.382Z,18.00
2023-04-17T23:04:50.665Z,17.76
2023-04-17T23:07:18.830Z,17.48
2023-04-17T23:09:47.510Z,17.36
2023-04-17T23:12:15.760Z,17.25
2023-04-17T23:14:45.051Z,17.07
2023-04-17T23:17:13.466Z,17.13
2023-04-17T23:19:41.700Z,17.11
2023-04-17T23:22:10.684Z,16.92
2023-04-17T23:24:38.948Z,16.72
2023-04-17T23:27:07.221Z,16.62
2023-04-17T23:29:35.468Z,16.54
2023-04-17T23:32:05.332Z,16.55
2023-04-17T23:34:35.508Z,16.51
2023-04-17T23:37:04.245Z,16.57
2023-04-17T23:39:32.414Z,16.50
2023-04-17T23:42:01.423Z,16.49
2023-04-17T23:44:29.649Z,16.49
2023-04-17T23:46:57.919Z,16.36
2023-04-17T23:49:26.264Z,16.41
2023-04-17T23:51:54.414Z,16.48
2023-04-17T23:54:22.694Z,16.51
2023-04-17T23:56:50.941Z,16.44
2023-04-17T23:59:19.271Z,16.43
